Time;durP1;ratioP1;P1;durP2;ratioP2;P2;SDS_P1;SDS_P2;PMS_P1;PMS_P2;Temp;Humidity;BMP_temperature;BMP_pressure;BME280_temperature;BME280_humidity;BME280_pressure;Samples;Min_cycle;Max_cycle;Signal;HPM_P1;HPM_P2
2021/07/03 00:01:39;;;;;;;7.13;4.43;;;;;;;;;;5078959;28;20091;-68
2021/07/03 00:04:05;;;;;;;6.20;4.70;;;;;;;;;;5076952;28;20044;-68
2021/07/03 00:06:32;;;;;;;7.28;4.55;;;;;;;;;;5072189;28;20488;-68
2021/07/03 00:08:58;;;;;;;8.02;5.30;;;;;;;;;;5072786;28;20040;-68
2021/07/03 00:11:24;;;;;;;7.15;4.70;;;;;;;;;;5072443;28;20049;-66
2021/07/03 00:13:50;;;;;;;8.68;4.68;;;;;;;;;;5072822;28;20052;-65
2021/07/03 00:16:17;;;;;;;5.95;4.30;;;;;;;;;;5072350;28;20050;-66
2021/07/03 00:18:43;;;;;;;7.88;4.90;;;;;;;;;;5072115;28;20400;-65
2021/07/03 00:21:09;;;;;;;9.07;5.07;;;;;;;;;;5072038;28;20052;-66
2021/07/03 00:23:35;;;;;;;5.97;4.50;;;;;;;;;;5072288;28;20052;-65
2021/07/03 00:26:02;;;;;;;7.00;4.72;;;;;;;;;;5076072;28;20056;-65
2021/07/03 00:28:28;;;;;;;5.43;4.30;;;;;;;;;;5078610;28;20059;-65
2021/07/03 00:30:56;;;;;;;5.78;4.53;;;;;;;;;;5077262;28;20101;-65
2021/07/03 00:33:23;;;;;;;5.85;4.47;;;;;;;;;;5078401;28;20052;-65
2021/07/03 00:35:49;;;;;;;7.10;4.32;;;;;;;;;;5075903;28;20075;-65
2021/07/03 00:38:15;;;;;;;5.95;4.43;;;;;;;;;;5074421;28;20044;-66
2021/07/03 00:40:41;;;;;;;5.63;4.13;;;;;;;;;;5082671;28;20096;-66
2021/07/03 00:43:08;;;;;;;7.43;4.32;;;;;;;;;;5072087;28;20090;-70
2021/07/03 00:45:35;;;;;;;7.43;4.97;;;;;;;;;;5052013;28;20044;-67
2021/07/03 00:48:01;;;;;;;6.90;4.75;;;;;;;;;;5051996;28;20065;-66
2021/07/03 00:50:28;;;;;;;7.30;4.50;;;;;;;;;;5051955;28;20420;-67
2021/07/03 00:52:55;;;;;;;10.43;4.75;;;;;;;;;;5086221;28;20045;-66
2021/07/03 00:55:26;;;;;;;21.30;4.88;;;;;;;;;;5051953;28;20044;-66
2021/07/03 00:57:54;;;;;;;7.43;4.47;;;;;;;;;;5051868;28;20077;-67
2021/07/03 01:00:24;;;;;;;7.72;4.57;;;;;;;;;;5039450;28;20064;-67
2021/07/03 01:02:52;;;;;;;8.20;4.72;;;;;;;;;;5028961;28;20505;-68
2021/07/03 01:05:19;;;;;;;7.20;4.63;;;;;;;;;;5029033;28;20085;-68
2021/07/03 01:07:45;;;;;;;8.85;4.75;;;;;;;;;;5030371;28;20049;-66
2021/07/03 01:10:20;;;;;;;14.98;5.20;;;;;;;;;;5030393;28;20045;-65
2021/07/03 01:12:47;;;;;;;7.40;5.05;;;;;;;;;;5030578;28;20050;-65
2021/07/03 01:15:14;;;;;;;5.53;4.28;;;;;;;;;;5030450;28;20052;-65
2021/07/03 01:17:40;;;;;;;7.15;3.88;;;;;;;;;;5030354;28;20124;-65
2021/07/03 01:20:07;;;;;;;7.15;4.88;;;;;;;;;;5030953;28;20057;-65
2021/07/03 01:22:34;;;;;;;5.72;4.18;;;;;;;;;;5030819;28;20069;-64
2021/07/03 01:25:01;;;;;;;6.05;4.18;;;;;;;;;;5035720;28;20045;-63
2021/07/03 01:27:28;;;;;;;6.47;4.18;;;;;;;;;;5040811;28;20037;-63
2021/07/03 01:29:54;;;;;;;5.93;4.07;;;;;;;;;;5030956;28;20041;-64
2021/07/03 01:32:22;;;;;;;5.50;3.75;;;;;;;;;;5031853;28;20049;-64
2021/07/03 01:34:49;;;;;;;6.28;3.92;;;;;;;;;;5031474;28;20046;-64
2021/07/03 01:37:26;;;;;;;5.57;4.25;;;;;;;;;;5030863;28;20069;-65
2021/07/03 01:39:57;;;;;;;7.63;3.95;;;;;;;;;;5031853;28;20053;-64
2021/07/03 01:42:24;;;;;;;7.03;4.90;;;;;;;;;;5030869;28;20094;-65
2021/07/03 01:44:51;;;;;;;6.90;4.25;;;;;;;;;;5016480;28;20455;-66
2021/07/03 01:47:19;;;;;;;6.53;4.22;;;;;;;;;;5046641;28;20073;-66
2021/07/03 01:49:45;;;;;;;7.30;5.22;;;;;;;;;;5032372;28;20057;-66
2021/07/03 01:52:19;;;;;;;6.40;4.45;;;;;;;;;;5031826;28;20466;-66
2021/07/03 01:54:49;;;;;;;7.10;4.78;;;;;;;;;;5035815;28;20409;-66
2021/07/03 01:57:15;;;;;;;7.90;5.00;;;;;;;;;;5034571;28;20041;-66
2021/07/03 02:00:01;;;;;;;8.30;4.95;;;;;;;;;;5047171;28;20052;-66
2021/07/03 02:02:31;;;;;;;7.45;4.88;;;;;;;;;;5057394;28;20041;-67
2021/07/03 02:04:57;;;;;;;8.82;4.38;;;;;;;;;;5091562;28;20052;-66
2021/07/03 02:07:24;;;;;;;6.22;4.85;;;;;;;;;;5057511;28;20506;-66
2021/07/03 02:09:53;;;;;;;6.18;4.72;;;;;;;;;;5057621;28;20063;-66
2021/07/03 02:12:23;;;;;;;6.78;4.72;;;;;;;;;;5075335;28;20059;-67
2021/07/03 02:15:04;;;;;;;7.70;4.97;;;;;;;;;;5057464;28;20044;-67
2021/07/03 02:17:34;;;;;;;7.80;4.90;;;;;;;;;;5041342;28;20463;-66
2021/07/03 02:20:06;;;;;;;7.65;5.50;;;;;;;;;;5058031;28;20045;-66
2021/07/03 02:22:46;;;;;;;7.75;5.25;;;;;;;;;;5057902;28;20049;-66
2021/07/03 02:25:18;;;;;;;9.32;5.03;;;;;;;;;;5057210;28;20500;-66
2021/07/03 02:27:49;;;;;;;9.13;5.15;;;;;;;;;;5057101;28;20049;-64
2021/07/03 02:30:17;;;;;;;9.27;5.72;;;;;;;;;;5056986;28;20399;-65
2021/07/03 02:32:46;;;;;;;7.28;5.22;;;;;;;;;;5057078;28;20052;-65
2021/07/03 02:35:14;;;;;;;9.57;5.10;;;;;;;;;;5075086;28;20045;-65
2021/07/03 02:37:40;;;;;;;9.25;4.63;;;;;;;;;;5075317;28;20392;-66
2021/07/03 02:40:08;;;;;;;7.72;5.10;;;;;;;;;;5074701;28;20073;-66
2021/07/03 02:42:36;;;;;;;9.48;4.95;;;;;;;;;;5074591;28;20047;-66
2021/07/03 02:45:03;;;;;;;8.98;5.55;;;;;;;;;;5076208;28;20085;-66
2021/07/03 02:47:30;;;;;;;6.60;4.20;;;;;;;;;;5064734;28;20048;-62
2021/07/03 02:49:56;;;;;;;7.95;4.93;;;;;;;;;;5090845;28;20049;-61
2021/07/03 02:52:23;;;;;;;8.95;4.85;;;;;;;;;;5074632;28;20048;-62
2021/07/03 02:54:49;;;;;;;9.30;5.45;;;;;;;;;;5074519;28;20072;-62
2021/07/03 02:57:17;;;;;;;10.57;5.20;;;;;;;;;;5056743;28;20052;-61
2021/07/03 02:59:43;;;;;;;9.80;4.95;;;;;;;;;;5052142;28;20053;-61
2021/07/03 03:02:12;;;;;;;8.13;5.32;;;;;;;;;;5056729;28;20117;-61
2021/07/03 03:04:39;;;;;;;8.98;5.60;;;;;;;;;;5055953;28;20051;-61
2021/07/03 03:07:06;;;;;;;7.70;5.22;;;;;;;;;;5074291;28;20044;-61
2021/07/03 03:09:33;;;;;;;8.18;5.18;;;;;;;;;;5074161;28;20512;-61
2021/07/03 03:12:00;;;;;;;8.40;5.90;;;;;;;;;;5056479;28;20048;-61
2021/07/03 03:14:27;;;;;;;9.05;5.50;;;;;;;;;;5073955;28;20187;-61
2021/07/03 03:16:55;;;;;;;7.97;5.15;;;;;;;;;;5074157;28;20048;-61
2021/07/03 03:19:23;;;;;;;10.18;5.03;;;;;;;;;;5073466;28;20419;-61
2021/07/03 03:21:50;;;;;;;7.30;4.97;;;;;;;;;;5055608;28;20056;-61
2021/07/03 03:24:18;;;;;;;10.45;5.70;;;;;;;;;;5089193;28;20051;-61
2021/07/03 03:26:46;;;;;;;6.75;4.65;;;;;;;;;;5055515;28;20045;-61
2021/07/03 03:29:14;;;;;;;8.75;5.20;;;;;;;;;;5055360;28;20174;-61
2021/07/03 03:31:42;;;;;;;6.78;4.65;;;;;;;;;;5055904;28;20125;-61
2021/07/03 03:34:08;;;;;;;5.07;3.95;;;;;;;;;;5055718;28;20067;-61
2021/07/03 03:36:35;;;;;;;5.72;4.20;;;;;;;;;;5055610;28;20041;-61
2021/07/03 03:39:04;;;;;;;9.90;4.47;;;;;;;;;;5055666;28;20049;-61
2021/07/03 03:41:32;;;;;;;7.10;4.90;;;;;;;;;;5073649;28;20116;-61
2021/07/03 03:44:01;;;;;;;8.05;5.20;;;;;;;;;;5089562;28;20037;-61
2021/07/03 03:46:30;;;;;;;5.45;3.80;;;;;;;;;;5093285;28;20064;-61
2021/07/03 03:48:57;;;;;;;6.93;5.22;;;;;;;;;;5059661;28;20043;-61
2021/07/03 03:51:25;;;;;;;7.57;4.68;;;;;;;;;;5055601;28;20627;-61
2021/07/03 03:53:52;;;;;;;9.50;5.60;;;;;;;;;;5055625;28;20048;-61
2021/07/03 03:56:19;;;;;;;12.10;5.47;;;;;;;;;;5073512;28;20467;-61
2021/07/03 03:58:45;;;;;;;6.63;4.80;;;;;;;;;;5073454;28;20073;-61
2021/07/03 04:01:16;;;;;;;6.78;4.60;;;;;;;;;;5055152;28;20052;-61
2021/07/03 04:03:43;;;;;;;9.43;5.15;;;;;;;;;;5073156;28;20064;-62
2021/07/03 04:06:11;;;;;;;10.18;5.18;;;;;;;;;;5055304;28;20041;-62
2021/07/03 04:08:38;;;;;;;9.20;5.13;;;;;;;;;;5055274;28;20052;-62
2021/07/03 04:11:04;;;;;;;8.27;5.28;;;;;;;;;;5073838;28;20051;-62
2021/07/03 04:13:31;;;;;;;6.63;4.43;;;;;;;;;;5072860;28;20563;-62
2021/07/03 04:15:57;;;;;;;6.63;3.45;;;;;;;;;;5072651;28;20052;-63
2021/07/03 04:18:24;;;;;;;7.13;4.68;;;;;;;;;;5072809;28;20050;-64
2021/07/03 04:20:50;;;;;;;9.00;4.93;;;;;;;;;;5072908;28;20082;-64
2021/07/03 04:23:16;;;;;;;7.57;5.30;;;;;;;;;;5072971;28;20083;-64
2021/07/03 04:25:42;;;;;;;8.05;5.20;;;;;;;;;;5073007;28;20080;-64
2021/07/03 04:28:09;;;;;;;7.65;4.72;;;;;;;;;;5054390;28;20048;-64
2021/07/03 04:30:36;;;;;;;7.05;4.63;;;;;;;;;;5072681;28;20071;-64
2021/07/03 04:33:02;;;;;;;8.80;4.75;;;;;;;;;;5072703;28;20496;-64
2021/07/03 04:35:28;;;;;;;6.80;4.85;;;;;;;;;;5055008;28;20399;-64
2021/07/03 04:37:56;;;;;;;8.55;4.85;;;;;;;;;;5088607;28;20151;-64
2021/07/03 04:40:22;;;;;;;8.38;4.93;;;;;;;;;;5054723;28;20080;-64
2021/07/03 04:42:48;;;;;;;6.60;4.22;;;;;;;;;;5072294;28;20041;-63
2021/07/03 04:45:19;;;;;;;6.30;4.38;;;;;;;;;;5055460;28;20070;-63
2021/07/03 04:47:46;;;;;;;6.88;4.35;;;;;;;;;;5078362;28;20511;-63
2021/07/03 04:50:13;;;;;;;6.22;3.67;;;;;;;;;;5054769;28;20416;-63
2021/07/03 04:52:39;;;;;;;8.10;4.45;;;;;;;;;;5053785;28;20055;-62
2021/07/03 04:55:07;;;;;;;7.05;4.00;;;;;;;;;;5087861;28;20045;-61
2021/07/03 04:57:33;;;;;;;7.18;4.35;;;;;;;;;;5072118;28;20098;-62
2021/07/03 05:00:00;;;;;;;5.20;3.20;;;;;;;;;;5072215;28;20415;-63
2021/07/03 05:02:27;;;;;;;6.20;4.13;;;;;;;;;;5054059;28;20535;-62
2021/07/03 05:04:53;;;;;;;6.43;4.38;;;;;;;;;;5072771;28;20059;-62
2021/07/03 05:07:20;;;;;;;7.90;4.13;;;;;;;;;;5072226;28;20049;-62
2021/07/03 05:09:56;;;;;;;7.18;4.80;;;;;;;;;;5054155;28;20063;-62
2021/07/03 05:12:22;;;;;;;7.22;4.78;;;;;;;;;;5072141;28;20104;-62
2021/07/03 05:14:49;;;;;;;7.07;4.22;;;;;;;;;;5072217;28;20049;-62
2021/07/03 05:17:15;;;;;;;7.35;4.50;;;;;;;;;;5054303;28;20115;-62
2021/07/03 05:19:41;;;;;;;7.60;4.15;;;;;;;;;;5072613;28;20048;-62
2021/07/03 05:22:08;;;;;;;7.32;3.58;;;;;;;;;;5077052;28;20040;-62
2021/07/03 05:24:34;;;;;;;8.55;4.22;;;;;;;;;;5055200;28;20524;-62
2021/07/03 05:27:00;;;;;;;6.72;4.32;;;;;;;;;;5054777;28;20041;-62
2021/07/03 05:29:26;;;;;;;5.43;3.75;;;;;;;;;;5075831;28;20135;-62
2021/07/03 05:31:53;;;;;;;8.30;4.05;;;;;;;;;;5081559;28;20050;-62
2021/07/03 05:34:20;;;;;;;6.75;3.30;;;;;;;;;;5080282;28;20044;-62
2021/07/03 05:36:48;;;;;;;7.13;4.30;;;;;;;;;;5081083;28;20056;-62
2021/07/03 05:39:14;;;;;;;4.00;2.75;;;;;;;;;;5086409;28;20044;-63
2021/07/03 05:41:41;;;;;;;4.85;3.38;;;;;;;;;;5058245;28;20513;-62
2021/07/03 05:44:07;;;;;;;4.90;3.60;;;;;;;;;;5076449;28;20445;-62
2021/07/03 05:46:34;;;;;;;6.15;4.53;;;;;;;;;;5072373;28;20045;-62
2021/07/03 05:49:00;;;;;;;7.07;4.00;;;;;;;;;;5072262;28;20480;-62
2021/07/03 05:51:27;;;;;;;6.47;4.38;;;;;;;;;;5071364;28;20059;-62
2021/07/03 05:53:55;;;;;;;4.55;3.38;;;;;;;;;;5060653;28;20060;-62
2021/07/03 05:56:21;;;;;;;8.07;4.30;;;;;;;;;;5070286;28;20044;-65
2021/07/03 06:10:55;;;;;;;5.13;3.38;;;;;;;;;;5129647;27;20402;-61
2021/07/03 06:13:22;;;;;;;5.47;3.50;;;;;;;;;;5128313;28;20411;-62
2021/07/03 06:15:48;;;;;;;4.05;2.88;;;;;;;;;;5126970;28;20061;-62
2021/07/03 06:18:14;;;;;;;4.50;3.28;;;;;;;;;;5126863;28;20870;-62
2021/07/03 06:20:40;;;;;;;5.50;3.42;;;;;;;;;;5126208;28;20047;-62
2021/07/03 06:23:07;;;;;;;5.80;3.15;;;;;;;;;;5128172;28;20446;-62
2021/07/03 06:25:33;;;;;;;9.68;3.60;;;;;;;;;;5129648;28;20043;-62
2021/07/03 06:28:00;;;;;;;5.72;3.53;;;;;;;;;;5128241;28;20043;-63
2021/07/03 06:30:26;;;;;;;6.05;3.10;;;;;;;;;;5127763;28;20038;-63
2021/07/03 06:32:52;;;;;;;5.93;3.15;;;;;;;;;;5128174;28;20039;-63
2021/07/03 06:35:19;;;;;;;6.70;3.20;;;;;;;;;;5128503;28;20076;-64
2021/07/03 06:37:45;;;;;;;6.55;4.18;;;;;;;;;;5130577;28;20046;-64
2021/07/03 06:40:12;;;;;;;4.53;3.28;;;;;;;;;;5126884;28;20577;-63
2021/07/03 06:42:38;;;;;;;7.15;3.47;;;;;;;;;;5128395;28;20410;-64
2021/07/03 06:45:05;;;;;;;4.63;3.40;;;;;;;;;;5128092;28;20043;-64
2021/07/03 06:47:31;;;;;;;4.93;3.60;;;;;;;;;;5128312;28;20048;-64
2021/07/03 06:49:58;;;;;;;5.13;4.03;;;;;;;;;;5130533;28;20521;-65
2021/07/03 06:52:24;;;;;;;6.40;3.90;;;;;;;;;;5126845;28;20081;-65
2021/07/03 06:54:50;;;;;;;6.40;4.38;;;;;;;;;;5128139;28;20501;-64
2021/07/03 06:57:17;;;;;;;6.93;5.05;;;;;;;;;;5128035;28;20043;-64
2021/07/03 06:59:43;;;;;;;8.07;5.15;;;;;;;;;;5109407;28;20126;-64
2021/07/03 07:02:09;;;;;;;5.47;4.00;;;;;;;;;;5110556;28;20085;-63
2021/07/03 07:04:36;;;;;;;7.53;4.53;;;;;;;;;;5111149;28;20047;-62
2021/07/03 07:07:02;;;;;;;7.85;4.85;;;;;;;;;;5127868;28;20049;-63
2021/07/03 07:09:28;;;;;;;6.65;4.55;;;;;;;;;;5127639;28;20081;-63
2021/07/03 07:11:59;;;;;;;6.43;4.18;;;;;;;;;;5114031;28;20128;-62
2021/07/03 07:14:25;;;;;;;6.47;4.45;;;;;;;;;;5113983;28;20051;-62
2021/07/03 07:16:52;;;;;;;5.90;4.78;;;;;;;;;;5116217;28;20054;-62
2021/07/03 07:19:18;;;;;;;8.18;5.03;;;;;;;;;;5112561;28;20043;-63
2021/07/03 07:21:44;;;;;;;9.45;5.63;;;;;;;;;;5113850;28;20116;-62
2021/07/03 07:24:11;;;;;;;6.00;4.78;;;;;;;;;;5112587;28;20513;-63
2021/07/03 07:26:38;;;;;;;8.93;5.05;;;;;;;;;;5114007;28;20039;-63
2021/07/03 07:29:05;;;;;;;7.60;5.10;;;;;;;;;;5114938;28;20043;-64
2021/07/03 07:31:31;;;;;;;7.32;5.80;;;;;;;;;;5112222;28;20040;-63
2021/07/03 07:33:58;;;;;;;6.55;5.00;;;;;;;;;;5113756;28;20071;-64
2021/07/03 07:36:24;;;;;;;6.72;4.90;;;;;;;;;;5113656;28;20043;-63
2021/07/03 07:38:50;;;;;;;6.95;5.00;;;;;;;;;;5113652;28;20082;-63
2021/07/03 07:41:17;;;;;;;7.47;5.47;;;;;;;;;;5113460;28;20051;-64
2021/07/03 07:43:43;;;;;;;7.40;5.85;;;;;;;;;;5115422;28;20043;-63
2021/07/03 07:46:09;;;;;;;8.57;6.35;;;;;;;;;;5113412;28;20075;-64
2021/07/03 07:48:36;;;;;;;7.72;5.22;;;;;;;;;;5113307;28;20521;-63
2021/07/03 07:51:02;;;;;;;7.75;5.72;;;;;;;;;;5113416;28;20093;-63
2021/07/03 07:53:29;;;;;;;11.05;6.25;;;;;;;;;;5113480;28;20376;-63
2021/07/03 07:55:56;;;;;;;9.70;6.72;;;;;;;;;;5115373;28;20048;-65
2021/07/03 07:58:23;;;;;;;10.73;5.93;;;;;;;;;;5111512;28;20099;-65
2021/07/03 08:00:49;;;;;;;10.48;7.43;;;;;;;;;;5113190;28;20046;-64
2021/07/03 08:03:15;;;;;;;9.32;7.10;;;;;;;;;;5094934;28;20082;-65
2021/07/03 08:05:43;;;;;;;12.20;7.40;;;;;;;;;;5113205;28;20083;-65
2021/07/03 08:08:09;;;;;;;10.95;7.35;;;;;;;;;;5095772;28;20494;-64
2021/07/03 08:10:37;;;;;;;11.32;7.25;;;;;;;;;;5109987;28;20481;-65
2021/07/03 08:13:04;;;;;;;11.85;7.75;;;;;;;;;;5086247;28;20448;-64
2021/07/03 08:15:31;;;;;;;10.07;6.95;;;;;;;;;;5076284;28;20042;-66
2021/07/03 08:17:58;;;;;;;14.02;8.02;;;;;;;;;;5079032;28;20067;-67
2021/07/03 08:20:24;;;;;;;11.75;7.68;;;;;;;;;;5094823;28;20077;-66
2021/07/03 08:22:51;;;;;;;10.60;7.57;;;;;;;;;;5097367;28;20131;-67
2021/07/03 08:25:18;;;;;;;10.07;7.05;;;;;;;;;;5101819;28;20090;-67
2021/07/03 08:27:45;;;;;;;9.98;7.43;;;;;;;;;;5099124;28;20392;-67
2021/07/03 08:30:12;;;;;;;9.48;6.85;;;;;;;;;;5097517;28;20122;-64
2021/07/03 08:32:38;;;;;;;9.98;7.53;;;;;;;;;;5095143;27;20553;-66
2021/07/03 08:35:06;;;;;;;11.60;7.30;;;;;;;;;;5091212;28;20071;-65
2021/07/03 08:37:32;;;;;;;12.57;8.90;;;;;;;;;;5097227;28;20040;-63
2021/07/03 08:39:58;;;;;;;11.00;6.85;;;;;;;;;;5096960;28;20083;-66
2021/07/03 08:42:25;;;;;;;14.68;8.10;;;;;;;;;;5078237;28;20538;-63
2021/07/03 08:44:51;;;;;;;12.70;7.90;;;;;;;;;;5107447;28;20055;-64
2021/07/03 08:47:18;;;;;;;13.30;8.45;;;;;;;;;;5108525;28;20047;-65
2021/07/03 08:49:58;;;;;;;11.27;8.60;;;;;;;;;;5106066;28;20047;-64
2021/07/03 08:52:25;;;;;;;12.38;8.27;;;;;;;;;;5108340;28;20100;-63
2021/07/03 08:55:03;;;;;;;12.60;8.68;;;;;;;;;;5109388;28;20043;-65
2021/07/03 08:57:31;;;;;;;13.18;7.28;;;;;;;;;;5109125;28;20050;-66
2021/07/03 09:00:01;;;;;;;10.60;7.97;;;;;;;;;;5110547;28;20035;-64
2021/07/03 09:02:34;;;;;;;12.05;9.20;;;;;;;;;;5111621;28;20091;-64
2021/07/03 09:05:01;;;;;;;15.25;9.38;;;;;;;;;;5091692;28;20051;-66
2021/07/03 09:07:36;;;;;;;13.73;9.30;;;;;;;;;;5110669;28;20052;-65
2021/07/03 09:10:03;;;;;;;11.77;7.20;;;;;;;;;;5111192;28;20047;-65
2021/07/03 09:12:32;;;;;;;18.45;10.57;;;;;;;;;;5111133;28;20052;-66
2021/07/03 09:15:14;;;;;;;14.65;10.70;;;;;;;;;;5110065;28;20043;-65
2021/07/03 09:17:49;;;;;;;13.35;9.43;;;;;;;;;;5097077;28;20047;-67
2021/07/03 09:20:42;;;;;;;14.90;10.00;;;;;;;;;;5111147;28;20051;-65
2021/07/03 09:23:08;;;;;;;13.80;9.05;;;;;;;;;;5106112;28;20056;-64
2021/07/03 09:25:39;;;;;;;10.73;8.68;;;;;;;;;;5112421;28;20054;-65
2021/07/03 09:28:10;;;;;;;12.02;8.38;;;;;;;;;;5110737;28;20112;-66
2021/07/03 09:30:37;;;;;;;13.13;8.95;;;;;;;;;;5105171;28;20082;-65
2021/07/03 09:33:03;;;;;;;11.90;9.18;;;;;;;;;;5100008;28;20414;-64
2021/07/03 09:35:30;;;;;;;17.55;9.63;;;;;;;;;;5111283;28;20047;-64
2021/07/03 09:38:00;;;;;;;15.30;9.00;;;;;;;;;;5113335;28;20055;-66
2021/07/03 09:40:28;;;;;;;18.10;9.43;;;;;;;;;;5107201;28;20087;-64
2021/07/03 09:42:54;;;;;;;15.85;10.25;;;;;;;;;;5106124;28;20047;-65
2021/07/03 09:45:23;;;;;;;12.02;8.23;;;;;;;;;;5100792;28;20055;-67
2021/07/03 09:47:50;;;;;;;10.07;8.30;;;;;;;;;;5111102;28;20093;-66
2021/07/03 09:50:22;;;;;;;13.57;8.43;;;;;;;;;;5098315;28;20499;-65
2021/07/03 09:52:48;;;;;;;11.60;8.23;;;;;;;;;;5106264;28;20048;-65
2021/07/03 09:55:14;;;;;;;16.98;9.95;;;;;;;;;;5109194;28;20482;-65
2021/07/03 09:57:41;;;;;;;16.85;9.68;;;;;;;;;;5110870;28;20451;-64
2021/07/03 10:00:09;;;;;;;13.93;10.80;;;;;;;;;;5110789;28;20513;-63
2021/07/03 10:02:40;;;;;;;15.35;8.25;;;;;;;;;;5110312;28;20048;-63
2021/07/03 10:05:06;;;;;;;12.70;8.95;;;;;;;;;;5097626;28;20052;-64
2021/07/03 10:07:40;;;;;;;15.25;9.15;;;;;;;;;;5109140;28;20083;-66
2021/07/03 10:10:08;;;;;;;12.10;8.52;;;;;;;;;;5107853;28;20134;-66
2021/07/03 10:12:36;;;;;;;13.18;8.88;;;;;;;;;;5107971;28;20058;-64
2021/07/03 10:15:03;;;;;;;14.00;9.63;;;;;;;;;;5108398;28;20047;-64
2021/07/03 10:17:31;;;;;;;14.27;9.65;;;;;;;;;;5092628;28;20044;-66
2021/07/03 10:19:58;;;;;;;14.10;10.68;;;;;;;;;;5105779;28;20506;-66
2021/07/03 10:22:26;;;;;;;16.48;10.27;;;;;;;;;;5108600;28;20046;-66
2021/07/03 10:24:53;;;;;;;14.07;9.68;;;;;;;;;;5109903;28;20414;-64
2021/07/03 10:27:21;;;;;;;14.23;9.77;;;;;;;;;;5109999;28;20063;-65
2021/07/03 10:29:48;;;;;;;14.45;9.73;;;;;;;;;;5110356;28;20044;-63
2021/07/03 10:32:32;;;;;;;14.13;10.70;;;;;;;;;;5110565;28;20050;-66
2021/07/03 10:35:09;;;;;;;13.50;9.65;;;;;;;;;;5112110;28;20056;-65
2021/07/03 10:37:36;;;;;;;15.77;9.55;;;;;;;;;;5111194;28;20043;-66
2021/07/03 10:40:14;;;;;;;13.88;10.00;;;;;;;;;;5109754;28;20124;-66
2021/07/03 10:42:40;;;;;;;14.90;10.07;;;;;;;;;;5091638;28;20145;-66
2021/07/03 10:45:08;;;;;;;15.45;10.07;;;;;;;;;;5109856;28;20582;-65
2021/07/03 10:47:34;;;;;;;15.35;9.85;;;;;;;;;;5113848;28;20064;-64
2021/07/03 10:50:00;;;;;;;12.18;9.48;;;;;;;;;;5116081;28;20051;-64
2021/07/03 10:52:37;;;;;;;12.90;8.10;;;;;;;;;;5113870;28;20051;-64
2021/07/03 10:55:04;;;;;;;14.77;9.43;;;;;;;;;;5113875;28;20047;-66
2021/07/03 10:57:30;;;;;;;11.95;8.80;;;;;;;;;;5113861;28;20078;-66
2021/07/03 11:00:00;;;;;;;15.88;10.93;;;;;;;;;;5093539;28;20044;-65
2021/07/03 11:02:30;;;;;;;19.73;11.30;;;;;;;;;;5113391;28;20039;-65
2021/07/03 11:04:56;;;;;;;14.57;10.90;;;;;;;;;;5115674;28;20075;-64
2021/07/03 11:07:32;;;;;;;14.77;8.98;;;;;;;;;;5113146;28;20418;-65
2021/07/03 11:10:07;;;;;;;17.02;9.30;;;;;;;;;;5113096;28;20055;-65
2021/07/03 11:12:43;;;;;;;12.27;9.00;;;;;;;;;;5112012;28;20051;-65
2021/07/03 11:15:10;;;;;;;17.23;10.52;;;;;;;;;;5113194;28;20078;-65
2021/07/03 11:17:36;;;;;;;15.90;10.50;;;;;;;;;;5113185;28;20549;-65
2021/07/03 11:20:03;;;;;;;11.75;8.52;;;;;;;;;;5114526;28;20051;-66
2021/07/03 11:22:30;;;;;;;13.80;9.55;;;;;;;;;;5112077;28;20067;-66
2021/07/03 11:24:58;;;;;;;12.85;8.40;;;;;;;;;;5094815;28;20047;-65
2021/07/03 11:27:24;;;;;;;13.43;8.63;;;;;;;;;;5113048;28;20039;-65
2021/07/03 11:29:51;;;;;;;8.85;7.20;;;;;;;;;;5113061;28;20051;-64
2021/07/03 11:32:17;;;;;;;15.05;8.35;;;;;;;;;;5112946;28;20043;-65
2021/07/03 11:34:50;;;;;;;11.50;7.90;;;;;;;;;;5114832;28;20513;-64
2021/07/03 11:37:24;;;;;;;11.75;8.45;;;;;;;;;;5112876;28;20092;-64
2021/07/03 11:39:54;;;;;;;13.38;8.98;;;;;;;;;;5094887;28;20040;-64
2021/07/03 11:42:27;;;;;;;11.75;8.68;;;;;;;;;;5112468;28;20043;-64
2021/07/03 11:44:54;;;;;;;14.43;9.53;;;;;;;;;;5112689;28;20063;-64
2021/07/03 11:47:20;;;;;;;10.75;8.18;;;;;;;;;;5112635;28;20465;-66
2021/07/03 11:49:47;;;;;;;18.92;7.82;;;;;;;;;;5114333;28;20121;-65
2021/07/03 11:52:13;;;;;;;10.27;7.80;;;;;;;;;;5111032;28;20123;-65
2021/07/03 11:54:39;;;;;;;9.98;8.05;;;;;;;;;;5094213;28;20050;-65
2021/07/03 11:57:06;;;;;;;12.05;8.07;;;;;;;;;;5104819;28;20048;-66
2021/07/03 11:59:32;;;;;;;13.73;8.40;;;;;;;;;;5111866;28;20130;-66
2021/07/03 12:01:59;;;;;;;11.80;8.93;;;;;;;;;;5115009;28;20059;-65
2021/07/03 12:04:26;;;;;;;9.93;7.63;;;;;;;;;;5092438;28;20051;-65
2021/07/03 12:07:00;;;;;;;11.93;7.68;;;;;;;;;;5112102;28;20043;-64
2021/07/03 12:09:33;;;;;;;10.68;8.48;;;;;;;;;;5111811;28;20451;-65
2021/07/03 12:11:59;;;;;;;10.48;7.20;;;;;;;;;;5112012;28;20089;-66
2021/07/03 12:14:28;;;;;;;12.15;8.82;;;;;;;;;;5111411;28;20405;-65
2021/07/03 12:16:56;;;;;;;18.75;10.07;;;;;;;;;;5114524;28;20071;-66
2021/07/03 12:19:22;;;;;;;16.48;9.18;;;;;;;;;;5111639;28;20502;-66
2021/07/03 12:21:49;;;;;;;10.00;7.13;;;;;;;;;;5111097;28;20066;-64
2021/07/03 12:24:16;;;;;;;11.27;8.18;;;;;;;;;;5091729;28;20183;-66
2021/07/03 12:26:49;;;;;;;10.45;8.63;;;;;;;;;;5112355;28;20059;-66
2021/07/03 12:29:26;;;;;;;11.93;9.30;;;;;;;;;;5112613;28;20460;-67
2021/07/03 12:31:53;;;;;;;10.20;8.35;;;;;;;;;;5113272;28;20078;-65
2021/07/03 12:34:25;;;;;;;14.98;8.82;;;;;;;;;;5111282;28;20055;-67
2021/07/03 12:36:52;;;;;;;13.23;8.95;;;;;;;;;;5111277;28;20131;-65
2021/07/03 12:39:20;;;;;;;12.88;9.20;;;;;;;;;;5112154;28;20075;-66
2021/07/03 12:41:48;;;;;;;13.18;7.95;;;;;;;;;;5111269;28;20456;-65
2021/07/03 12:44:14;;;;;;;9.48;7.30;;;;;;;;;;5111691;28;20490;-66
2021/07/03 12:46:42;;;;;;;9.15;6.47;;;;;;;;;;5092963;28;20090;-66
2021/07/03 12:49:09;;;;;;;12.43;7.72;;;;;;;;;;5111135;28;20071;-66
2021/07/03 12:51:37;;;;;;;10.95;7.60;;;;;;;;;;5093556;28;20059;-66
2021/07/03 12:54:04;;;;;;;13.27;8.63;;;;;;;;;;5111337;28;20490;-65
2021/07/03 12:56:30;;;;;;;9.70;7.07;;;;;;;;;;5077051;28;20134;-66
2021/07/03 12:59:00;;;;;;;12.85;6.95;;;;;;;;;;5108659;28;20036;-67
2021/07/03 13:01:28;;;;;;;7.22;5.80;;;;;;;;;;5111324;28;20055;-66
2021/07/03 13:03:54;;;;;;;8.98;7.03;;;;;;;;;;5110735;28;20407;-66
2021/07/03 13:06:24;;;;;;;9.93;7.32;;;;;;;;;;5111076;28;20051;-65
2021/07/03 13:08:50;;;;;;;6.60;6.00;;;;;;;;;;5090630;28;20091;-67
2021/07/03 13:11:16;;;;;;;7.30;6.30;;;;;;;;;;5111247;28;20440;-66
2021/07/03 13:13:43;;;;;;;8.32;6.07;;;;;;;;;;5113016;28;20054;-66
2021/07/03 13:16:09;;;;;;;8.88;7.13;;;;;;;;;;5092740;28;20075;-67
2021/07/03 13:18:35;;;;;;;6.40;5.68;;;;;;;;;;5110723;28;20046;-67
2021/07/03 13:21:02;;;;;;;7.82;6.00;;;;;;;;;;5110653;28;20069;-65
2021/07/03 13:23:31;;;;;;;10.80;6.45;;;;;;;;;;5110513;28;20384;-66
2021/07/03 13:25:58;;;;;;;8.45;6.20;;;;;;;;;;5108486;28;20051;-69
2021/07/03 13:28:24;;;;;;;6.38;5.78;;;;;;;;;;5110588;28;20452;-67
2021/07/03 13:30:51;;;;;;;7.95;5.45;;;;;;;;;;5108989;28;20487;-65
2021/07/03 13:33:17;;;;;;;9.23;6.63;;;;;;;;;;5110352;28;20119;-67
2021/07/03 13:35:43;;;;;;;8.07;6.47;;;;;;;;;;5110877;28;20066;-67
2021/07/03 13:38:09;;;;;;;8.00;6.57;;;;;;;;;;5111441;28;20521;-66
2021/07/03 13:40:36;;;;;;;7.65;5.80;;;;;;;;;;5111729;28;20047;-64
2021/07/03 13:43:02;;;;;;;6.70;5.78;;;;;;;;;;5110174;28;20264;-65
2021/07/03 13:45:28;;;;;;;6.82;5.38;;;;;;;;;;5110476;28;20529;-65
2021/07/03 13:47:55;;;;;;;9.48;6.70;;;;;;;;;;5109186;28;20048;-66
2021/07/03 13:50:21;;;;;;;9.35;5.85;;;;;;;;;;5110376;28;20055;-65
2021/07/03 13:52:48;;;;;;;10.85;6.97;;;;;;;;;;5112182;28;20097;-65
2021/07/03 13:55:14;;;;;;;10.68;6.60;;;;;;;;;;5110747;28;20442;-64
2021/07/03 13:57:40;;;;;;;7.22;6.30;;;;;;;;;;5110377;28;20068;-64
2021/07/03 14:00:10;;;;;;;6.80;6.00;;;;;;;;;;5109841;28;20623;-65
2021/07/03 14:02:40;;;;;;;15.10;6.97;;;;;;;;;;5092190;28;20061;-66
2021/07/03 14:05:07;;;;;;;10.40;7.20;;;;;;;;;;5111643;28;20063;-66
2021/07/03 14:07:35;;;;;;;9.50;6.95;;;;;;;;;;5111562;28;20093;-66
2021/07/03 14:10:02;;;;;;;8.32;7.05;;;;;;;;;;5109699;28;20070;-66
2021/07/03 14:12:31;;;;;;;8.77;6.78;;;;;;;;;;5110322;28;20047;-66
2021/07/03 14:14:59;;;;;;;10.02;6.47;;;;;;;;;;5110725;28;20051;-65
2021/07/03 14:17:27;;;;;;;15.13;7.00;;;;;;;;;;5110878;28;20036;-65
2021/07/03 14:19:54;;;;;;;7.80;6.75;;;;;;;;;;5112568;28;20177;-66
2021/07/03 14:22:20;;;;;;;7.53;6.57;;;;;;;;;;5114351;28;20157;-67
2021/07/03 14:24:46;;;;;;;6.40;5.70;;;;;;;;;;5114775;28;20093;-67
2021/07/03 14:27:13;;;;;;;9.48;5.53;;;;;;;;;;5113473;28;20043;-66
2021/07/03 14:29:39;;;;;;;7.82;5.93;;;;;;;;;;5114517;28;20040;-67
2021/07/03 14:32:06;;;;;;;13.07;6.05;;;;;;;;;;5097659;28;20047;-67
2021/07/03 14:34:33;;;;;;;7.45;6.00;;;;;;;;;;5114284;28;20063;-66
2021/07/03 14:36:59;;;;;;;8.93;6.28;;;;;;;;;;5114592;28;20043;-66
2021/07/03 14:39:25;;;;;;;8.65;6.20;;;;;;;;;;5114282;28;20498;-67
2021/07/03 14:41:52;;;;;;;7.28;6.47;;;;;;;;;;5114455;28;20050;-67
2021/07/03 14:44:19;;;;;;;10.95;6.75;;;;;;;;;;5113763;28;20071;-66
2021/07/03 14:46:45;;;;;;;10.05;7.38;;;;;;;;;;5116491;28;20044;-66
2021/07/03 14:49:12;;;;;;;7.57;6.60;;;;;;;;;;5114165;28;20073;-68
2021/07/03 14:51:38;;;;;;;7.53;6.82;;;;;;;;;;5114173;28;20078;-66
2021/07/03 14:54:04;;;;;;;4.78;3.88;;;;;;;;;;5114206;28;20487;-66